Williamsville, New York
Current Conditions -  °F | °C
As of 11:54 AM on Monday 22 Dec 2014 (Local Time) from KBUF Reporting Station
Few Clouds Few Clouds  
Wind Chill: 29°   Ceiling: Unl
Heat Index: 35°   Visibility: 10mi
Dew Point: 24°   Wind: 7mph
Humidity: 64%   Direction: 120°ESE
Pressure: 30.12"   Gusts: NA
Location:  42.9241°N, 78.8144°W
Report Text: KBUF 221654Z 12006KT 10SM FEW150 FEW200 FEW250 02/M04 A3012 RMK AO2 SLP209 T00171044
Loading
Personal Weather Stations






























Interactive Weather Map New forecast layout! Learn more

10-Day Weather Forecast

Advertisements
Track Severe Weather on mobile